Lome, Togo
Current Conditions -  °F | °C
As of 9:00 PM on Wednesday 17 Dec 2014 (Local Time) from DXXX Reporting Station
Clear Clear  
Wind Chill: 82°   Ceiling: Unl
Heat Index: 91°   Visibility: 5mi
Dew Point: 77°   Wind: 7mph
Humidity: 84%   Direction: 200°SSW
Pressure: 29.91"   Gusts: NA
Location:  6.17°N, 1.35°E
Report Text: DXXX 172100Z 20006KT 8000 NSC 28/25 Q1013 NOSIG
Loading
Personal Weather Stations






























Interactive Weather Map New forecast layout! Learn more

10-Day Weather Forecast

Advertisements
Track Severe Weather on mobile